Time;durP1;ratioP1;P1;durP2;ratioP2;P2;SDS_P1;SDS_P2;PMS_P1;PMS_P2;Temp;Humidity;BMP_temperature;BMP_pressure;BME280_temperature;BME280_humidity;BME280_pressure;Samples;Min_cycle;Max_cycle;Signal;HPM_P1;HPM_P2
2021/05/13 00:00:48;;;;;;;12.23;8.95;;;;;;;;;;5137379;28;20432;-88
2021/05/13 00:03:14;;;;;;;15.93;8.93;;;;;;;;;;5138308;28;20025;-89
2021/05/13 00:05:45;;;;;;;11.48;8.73;;;;;;;;;;5138033;28;20029;-89
2021/05/13 00:08:11;;;;;;;16.48;10.55;;;;;;;;;;5137275;28;20147;-89
2021/05/13 00:10:38;;;;;;;19.92;10.93;;;;;;;;;;5130321;28;20406;-90
2021/05/13 00:13:06;;;;;;;17.23;10.68;;;;;;;;;;5097553;28;20418;-90
2021/05/13 00:15:34;;;;;;;18.00;10.80;;;;;;;;;;5105720;28;20024;-89
2021/05/13 00:18:00;;;;;;;19.67;10.43;;;;;;;;;;5116674;28;20024;-89
2021/05/13 00:20:31;;;;;;;19.85;10.70;;;;;;;;;;5117405;28;20026;-90
2021/05/13 00:22:58;;;;;;;17.85;11.35;;;;;;;;;;5116952;28;20093;-90
2021/05/13 00:25:24;;;;;;;18.80;11.18;;;;;;;;;;5099733;28;20414;-89
2021/05/13 00:27:50;;;;;;;21.02;10.48;;;;;;;;;;5116469;28;20053;-89
2021/05/13 00:30:17;;;;;;;20.88;11.07;;;;;;;;;;5120925;28;20027;-87
2021/05/13 00:32:43;;;;;;;19.77;10.88;;;;;;;;;;5121079;28;20019;-86
2021/05/13 00:35:13;;;;;;;22.20;11.20;;;;;;;;;;5119453;28;20440;-86
2021/05/13 00:37:39;;;;;;;23.52;11.80;;;;;;;;;;5120744;28;20048;-86
2021/05/13 00:40:08;;;;;;;19.42;11.05;;;;;;;;;;5120342;28;20424;-86
2021/05/13 00:42:34;;;;;;;21.35;11.20;;;;;;;;;;5120585;28;20027;-85
2021/05/13 00:45:00;;;;;;;19.42;10.30;;;;;;;;;;5119993;28;20027;-85
2021/05/13 00:47:28;;;;;;;19.65;10.40;;;;;;;;;;5120515;28;20368;-85
2021/05/13 00:49:54;;;;;;;16.08;9.57;;;;;;;;;;5119602;28;20024;-85
2021/05/13 00:52:21;;;;;;;17.50;8.95;;;;;;;;;;5120411;28;20038;-85
2021/05/13 00:54:47;;;;;;;15.15;9.43;;;;;;;;;;5120650;28;20118;-84
2021/05/13 00:57:13;;;;;;;12.73;7.93;;;;;;;;;;5120321;28;20020;-85
2021/05/13 00:59:42;;;;;;;11.07;8.27;;;;;;;;;;5120382;28;20056;-84
2021/05/13 01:02:08;;;;;;;11.35;8.20;;;;;;;;;;5120247;28;20310;-86
2021/05/13 01:04:34;;;;;;;12.95;8.38;;;;;;;;;;5120160;28;20024;-86
2021/05/13 01:07:00;;;;;;;13.32;8.27;;;;;;;;;;5119406;28;20481;-86
2021/05/13 01:09:30;;;;;;;13.60;8.23;;;;;;;;;;5120115;28;20023;-86
2021/05/13 01:12:04;;;;;;;10.70;7.45;;;;;;;;;;5120103;28;20023;-86
2021/05/13 01:19:29;;;;;;;11.25;7.22;;;;;;;;;;5120130;28;20027;-86
2021/05/13 01:21:56;;;;;;;8.68;7.32;;;;;;;;;;5118854;28;20016;-86
2021/05/13 01:24:22;;;;;;;10.65;7.35;;;;;;;;;;5120236;28;20024;-87
2021/05/13 01:26:49;;;;;;;11.57;6.88;;;;;;;;;;5118934;28;20058;-87
2021/05/13 01:29:17;;;;;;;9.45;6.50;;;;;;;;;;5119596;28;20043;-87
2021/05/13 01:31:43;;;;;;;8.25;5.88;;;;;;;;;;5119811;28;20027;-87
2021/05/13 01:34:10;;;;;;;7.57;6.60;;;;;;;;;;5119769;28;20019;-85
2021/05/13 01:39:58;;;;;;;8.80;6.40;;;;;;;;;;5119506;28;20042;-86
2021/05/13 01:42:24;;;;;;;11.05;6.38;;;;;;;;;;5119669;28;20045;-86
2021/05/13 01:44:50;;;;;;;8.25;6.00;;;;;;;;;;5118215;28;20034;-86
2021/05/13 01:47:16;;;;;;;7.25;5.65;;;;;;;;;;5119402;28;20044;-85
2021/05/13 01:49:42;;;;;;;7.50;5.63;;;;;;;;;;5119470;28;20023;-85
2021/05/13 01:52:08;;;;;;;8.27;5.40;;;;;;;;;;5119256;28;20102;-85
2021/05/13 01:54:34;;;;;;;8.55;5.72;;;;;;;;;;5119367;28;20024;-85
2021/05/13 01:57:01;;;;;;;7.25;5.30;;;;;;;;;;5118344;28;20055;-87
2021/05/13 01:59:27;;;;;;;9.05;5.35;;;;;;;;;;5119206;28;20050;-88
2021/05/13 02:01:53;;;;;;;6.07;4.85;;;;;;;;;;5119608;28;20035;-88
2021/05/13 02:04:19;;;;;;;6.22;4.93;;;;;;;;;;5119109;28;20038;-89
2021/05/13 02:06:45;;;;;;;5.28;4.68;;;;;;;;;;5119142;28;20031;-88
2021/05/13 02:09:11;;;;;;;6.95;5.32;;;;;;;;;;5119410;28;20031;-88
2021/05/13 02:11:37;;;;;;;8.60;5.28;;;;;;;;;;5119404;28;20044;-88
2021/05/13 02:14:04;;;;;;;9.00;5.53;;;;;;;;;;5118896;28;20024;-88
2021/05/13 02:16:30;;;;;;;6.72;5.20;;;;;;;;;;5119269;28;20026;-88
2021/05/13 02:18:56;;;;;;;9.90;5.25;;;;;;;;;;5119171;28;20023;-89
2021/05/13 02:24:25;;;;;;;8.07;5.45;;;;;;;;;;5119081;28;20031;-89
2021/05/13 02:26:51;;;;;;;7.32;5.85;;;;;;;;;;5119030;28;20134;-88
2021/05/13 02:29:17;;;;;;;8.05;5.60;;;;;;;;;;5118731;28;20031;-89
2021/05/13 02:31:44;;;;;;;13.18;5.72;;;;;;;;;;5118994;28;20024;-89
2021/05/13 02:34:10;;;;;;;7.95;5.15;;;;;;;;;;5118619;28;20028;-87
2021/05/13 02:40:16;;;;;;;8.10;5.45;;;;;;;;;;5118883;28;20092;-85
2021/05/13 02:42:43;;;;;;;9.27;5.82;;;;;;;;;;5118355;28;20058;-86
2021/05/13 02:45:10;;;;;;;7.82;5.72;;;;;;;;;;5117394;28;20028;-87
2021/05/13 02:47:36;;;;;;;7.97;5.57;;;;;;;;;;5118539;28;20054;-86
2021/05/13 02:50:06;;;;;;;10.40;5.60;;;;;;;;;;5118619;28;20038;-88
2021/05/13 02:55:36;;;;;;;9.43;6.10;;;;;;;;;;5118509;28;20072;-86
2021/05/13 02:58:04;;;;;;;9.63;5.47;;;;;;;;;;5117278;28;20239;-86
2021/05/13 03:03:15;;;;;;;10.60;5.60;;;;;;;;;;5118519;28;20485;-86
2021/05/13 03:05:41;;;;;;;7.80;5.18;;;;;;;;;;5118329;28;20023;-86
2021/05/13 03:08:09;;;;;;;8.68;4.95;;;;;;;;;;5117908;28;20024;-86
2021/05/13 03:10:43;;;;;;;8.88;5.10;;;;;;;;;;5117192;28;20023;-86
2021/05/13 03:13:11;;;;;;;6.43;4.47;;;;;;;;;;5116949;28;20054;-86
2021/05/13 03:15:37;;;;;;;6.82;4.22;;;;;;;;;;5118125;28;20077;-86
2021/05/13 03:18:03;;;;;;;5.28;3.90;;;;;;;;;;5118282;28;20313;-86
2021/05/13 03:20:38;;;;;;;7.28;4.10;;;;;;;;;;5116968;28;20303;-87
2021/05/13 03:29:12;;;;;;;7.90;5.03;;;;;;;;;;5075988;28;20083;-87
2021/05/13 03:31:38;;;;;;;8.18;4.95;;;;;;;;;;5075686;28;20443;-86
2021/05/13 03:34:04;;;;;;;7.70;5.20;;;;;;;;;;5075497;28;20075;-85
2021/05/13 03:36:31;;;;;;;7.47;4.63;;;;;;;;;;5058562;28;20060;-86
2021/05/13 03:38:57;;;;;;;7.63;4.07;;;;;;;;;;5075548;28;20455;-86
2021/05/13 03:41:24;;;;;;;6.93;4.55;;;;;;;;;;5075404;28;20033;-86
2021/05/13 03:43:50;;;;;;;7.38;4.80;;;;;;;;;;5058691;28;20040;-85
2021/05/13 03:46:16;;;;;;;6.03;4.90;;;;;;;;;;5075398;28;20127;-85
2021/05/13 03:48:42;;;;;;;8.43;4.95;;;;;;;;;;5075294;28;20050;-85
2021/05/13 03:51:08;;;;;;;7.30;3.58;;;;;;;;;;5075315;28;20044;-85
2021/05/13 03:53:34;;;;;;;5.80;4.22;;;;;;;;;;5058435;28;20127;-85
2021/05/13 03:56:00;;;;;;;5.07;3.75;;;;;;;;;;5075730;28;20020;-85
2021/05/13 03:58:30;;;;;;;5.03;4.05;;;;;;;;;;5117815;28;20036;-87
2021/05/13 04:03:23;;;;;;;5.45;3.95;;;;;;;;;;5119999;28;20410;-87
2021/05/13 04:05:49;;;;;;;4.90;3.60;;;;;;;;;;5121633;28;20031;-84
2021/05/13 04:08:15;;;;;;;5.15;3.78;;;;;;;;;;5121362;28;20031;-87
2021/05/13 04:10:42;;;;;;;6.68;4.07;;;;;;;;;;5121355;28;20106;-86
2021/05/13 04:13:10;;;;;;;5.93;4.20;;;;;;;;;;5121326;28;20027;-86
2021/05/13 04:15:36;;;;;;;5.97;4.22;;;;;;;;;;5120706;28;20020;-86
2021/05/13 04:18:03;;;;;;;5.60;4.35;;;;;;;;;;5121565;28;20030;-85
2021/05/13 04:20:29;;;;;;;7.05;4.00;;;;;;;;;;5121518;28;20034;-85
2021/05/13 04:23:13;;;;;;;8.30;4.30;;;;;;;;;;5121173;28;20072;-86
2021/05/13 04:25:39;;;;;;;8.05;4.68;;;;;;;;;;5120308;28;20114;-86
2021/05/13 04:28:05;;;;;;;10.65;4.68;;;;;;;;;;5121093;28;20031;-86
2021/05/13 04:30:31;;;;;;;13.43;5.05;;;;;;;;;;5121171;28;20032;-89
2021/05/13 04:32:57;;;;;;;21.42;5.63;;;;;;;;;;5121272;28;20016;-89
2021/05/13 04:35:25;;;;;;;15.23;5.47;;;;;;;;;;5120981;28;20031;-86
2021/05/13 04:47:19;;;;;;;11.55;6.75;;;;;;;;;;5120697;28;20341;-86
2021/05/13 04:49:45;;;;;;;12.68;6.43;;;;;;;;;;5119660;28;20345;-85
2021/05/13 04:52:11;;;;;;;11.63;7.75;;;;;;;;;;5119084;28;20080;-85
2021/05/13 04:54:37;;;;;;;15.80;6.32;;;;;;;;;;5120327;28;20016;-85
2021/05/13 04:57:03;;;;;;;13.82;7.22;;;;;;;;;;5119457;28;20020;-85
2021/05/13 04:59:29;;;;;;;14.85;7.40;;;;;;;;;;5120363;28;20032;-86
2021/05/13 05:01:55;;;;;;;28.42;10.50;;;;;;;;;;5119482;28;20020;-85
2021/05/13 05:04:21;;;;;;;17.35;8.02;;;;;;;;;;5120254;28;20024;-85
2021/05/13 05:15:59;;;;;;;12.05;6.20;;;;;;;;;;5119530;28;20442;-86
2021/05/13 05:18:25;;;;;;;9.70;5.60;;;;;;;;;;5119152;28;20042;-86
2021/05/13 05:20:52;;;;;;;9.35;5.53;;;;;;;;;;5120144;27;20034;-86
2021/05/13 05:26:21;;;;;;;9.25;5.95;;;;;;;;;;5120021;28;20022;-86
2021/05/13 05:28:47;;;;;;;10.10;5.72;;;;;;;;;;5118637;28;20138;-87
2021/05/13 05:31:13;;;;;;;10.38;6.43;;;;;;;;;;5119947;28;20061;-85
2021/05/13 05:33:39;;;;;;;8.98;5.82;;;;;;;;;;5118778;28;20443;-87
2021/05/13 05:36:05;;;;;;;8.38;5.70;;;;;;;;;;5103943;28;20353;-85
2021/05/13 05:38:32;;;;;;;7.82;5.15;;;;;;;;;;5099448;28;20032;-87
2021/05/13 05:40:58;;;;;;;15.23;5.72;;;;;;;;;;5099777;28;20032;-87
2021/05/13 05:43:24;;;;;;;10.93;6.28;;;;;;;;;;5099553;28;20024;-84
2021/05/13 05:45:50;;;;;;;9.90;5.97;;;;;;;;;;5099549;28;20032;-84
2021/05/13 05:48:16;;;;;;;8.65;6.18;;;;;;;;;;5099114;28;20051;-85
2021/05/13 05:50:43;;;;;;;17.45;6.85;;;;;;;;;;5118171;28;20039;-85
2021/05/13 05:53:09;;;;;;;10.25;7.43;;;;;;;;;;5113372;28;20024;-89
2021/05/13 05:55:36;;;;;;;11.02;6.32;;;;;;;;;;5115909;28;20027;-82
2021/05/13 05:58:03;;;;;;;12.63;7.40;;;;;;;;;;5112150;28;20028;-81
2021/05/13 06:00:29;;;;;;;12.20;6.55;;;;;;;;;;5098429;28;20020;-81
2021/05/13 06:02:55;;;;;;;9.02;5.10;;;;;;;;;;5098286;28;20052;-81
2021/05/13 06:05:23;;;;;;;8.93;5.45;;;;;;;;;;5098050;28;20032;-81
2021/05/13 06:07:49;;;;;;;7.30;4.75;;;;;;;;;;5098423;28;20437;-81
2021/05/13 06:10:16;;;;;;;8.30;5.07;;;;;;;;;;5098301;28;20107;-81
2021/05/13 06:12:42;;;;;;;10.05;4.47;;;;;;;;;;5098292;28;20024;-81
2021/05/13 06:15:10;;;;;;;7.60;3.80;;;;;;;;;;5108402;28;20026;-81
2021/05/13 06:17:36;;;;;;;8.68;4.45;;;;;;;;;;5118370;28;20402;-81
2021/05/13 06:20:05;;;;;;;10.52;4.15;;;;;;;;;;5118329;28;20019;-81
2021/05/13 06:22:31;;;;;;;9.00;4.28;;;;;;;;;;5116871;28;20032;-81
2021/05/13 06:24:57;;;;;;;10.25;5.03;;;;;;;;;;5118470;28;20089;-82
2021/05/13 06:27:24;;;;;;;9.63;5.55;;;;;;;;;;5117159;28;20023;-81
2021/05/13 06:29:50;;;;;;;6.28;4.35;;;;;;;;;;5118435;28;20024;-81
2021/05/13 06:32:16;;;;;;;12.52;4.32;;;;;;;;;;5116787;28;20028;-81
2021/05/13 06:34:43;;;;;;;7.15;4.82;;;;;;;;;;5117038;28;20034;-81
2021/05/13 06:37:09;;;;;;;8.57;5.13;;;;;;;;;;5117990;28;20047;-81
2021/05/13 06:39:35;;;;;;;10.30;5.68;;;;;;;;;;5116670;28;20345;-81
2021/05/13 06:42:02;;;;;;;7.43;5.10;;;;;;;;;;5118101;28;20342;-81
2021/05/13 06:44:29;;;;;;;15.23;7.28;;;;;;;;;;5118070;28;20459;-81
2021/05/13 06:46:55;;;;;;;9.52;5.18;;;;;;;;;;5117844;28;20036;-81
2021/05/13 06:49:21;;;;;;;9.85;6.00;;;;;;;;;;5117582;28;20314;-81
2021/05/13 06:51:47;;;;;;;9.90;6.63;;;;;;;;;;5118077;28;20107;-81
2021/05/13 06:54:13;;;;;;;11.10;6.63;;;;;;;;;;5117726;28;20051;-81
2021/05/13 06:56:41;;;;;;;10.32;5.88;;;;;;;;;;5098073;28;20409;-82
2021/05/13 06:59:07;;;;;;;10.18;6.20;;;;;;;;;;5097279;28;20118;-81
2021/05/13 07:01:35;;;;;;;11.23;5.68;;;;;;;;;;5097386;28;20023;-82
2021/05/13 07:04:04;;;;;;;11.82;6.18;;;;;;;;;;5096324;28;20323;-82
2021/05/13 07:06:30;;;;;;;11.10;5.63;;;;;;;;;;5097500;28;20099;-82
2021/05/13 07:08:56;;;;;;;17.13;11.05;;;;;;;;;;5097409;28;20020;-81
2021/05/13 07:11:22;;;;;;;10.48;5.60;;;;;;;;;;5096894;28;20035;-81
2021/05/13 07:13:48;;;;;;;12.68;6.50;;;;;;;;;;5097153;28;20107;-80
2021/05/13 07:16:14;;;;;;;10.98;5.68;;;;;;;;;;5097466;28;20016;-81
2021/05/13 07:18:40;;;;;;;14.55;6.82;;;;;;;;;;5095971;28;20022;-80
2021/05/13 07:21:06;;;;;;;23.88;13.48;;;;;;;;;;5097150;28;20111;-81
2021/05/13 07:23:32;;;;;;;38.25;24.40;;;;;;;;;;5097026;28;20077;-80
2021/05/13 07:25:59;;;;;;;16.98;10.27;;;;;;;;;;5097042;28;20348;-80
2021/05/13 07:28:26;;;;;;;19.67;12.18;;;;;;;;;;5095705;28;20094;-80
2021/05/13 07:30:52;;;;;;;20.15;14.18;;;;;;;;;;5096925;28;20025;-80
2021/05/13 07:33:18;;;;;;;10.82;7.03;;;;;;;;;;5096954;28;20024;-80
2021/05/13 07:35:44;;;;;;;21.73;14.63;;;;;;;;;;5095927;28;20047;-80
2021/05/13 07:38:11;;;;;;;12.05;7.07;;;;;;;;;;5098669;28;20035;-80
2021/05/13 07:40:37;;;;;;;13.88;6.93;;;;;;;;;;5100989;28;20020;-80
2021/05/13 07:43:04;;;;;;;10.15;6.40;;;;;;;;;;5100833;28;20055;-80
2021/05/13 07:45:32;;;;;;;8.38;5.22;;;;;;;;;;5099486;28;20376;-80
2021/05/13 07:47:59;;;;;;;6.22;4.28;;;;;;;;;;5099561;28;20112;-80
2021/05/13 07:50:25;;;;;;;62.00;41.83;;;;;;;;;;5100767;28;20034;-80
2021/05/13 07:52:52;;;;;;;58.17;41.35;;;;;;;;;;5100627;28;20052;-80
2021/05/13 07:55:18;;;;;;;68.00;46.60;;;;;;;;;;5100773;28;20024;-79
2021/05/13 07:57:44;;;;;;;41.90;29.58;;;;;;;;;;5100413;28;20028;-79
2021/05/13 08:00:11;;;;;;;72.45;49.60;;;;;;;;;;5100568;28;20024;-78
2021/05/13 08:02:37;;;;;;;47.42;32.17;;;;;;;;;;5100546;28;20016;-79
2021/05/13 08:05:03;;;;;;;66.72;45.92;;;;;;;;;;5099295;28;20020;-80
2021/05/13 08:07:29;;;;;;;61.38;42.58;;;;;;;;;;5099676;28;20032;-80
2021/05/13 08:09:56;;;;;;;34.95;23.17;;;;;;;;;;5099438;28;20106;-80
2021/05/13 08:12:22;;;;;;;61.85;43.10;;;;;;;;;;5100338;28;20115;-79
2021/05/13 08:14:48;;;;;;;41.80;27.50;;;;;;;;;;5100311;28;20048;-81
2021/05/13 08:17:14;;;;;;;38.00;27.40;;;;;;;;;;5100579;28;20023;-82
2021/05/13 08:19:40;;;;;;;57.60;39.15;;;;;;;;;;5100079;28;20063;-81
2021/05/13 08:22:07;;;;;;;28.85;20.77;;;;;;;;;;5100387;28;20024;-80
2021/05/13 08:24:33;;;;;;;44.00;32.30;;;;;;;;;;5099877;28;20031;-80
2021/05/13 08:27:01;;;;;;;27.90;18.42;;;;;;;;;;5100251;28;20032;-79
2021/05/13 08:29:28;;;;;;;19.83;14.30;;;;;;;;;;5098538;28;20069;-80
2021/05/13 08:31:54;;;;;;;19.52;14.60;;;;;;;;;;5100184;28;20031;-79
2021/05/13 08:34:20;;;;;;;32.65;23.23;;;;;;;;;;5098952;28;20031;-80
2021/05/13 08:36:47;;;;;;;28.17;18.35;;;;;;;;;;5099970;28;20028;-79
2021/05/13 08:39:13;;;;;;;31.13;20.27;;;;;;;;;;5099972;28;20035;-80
2021/05/13 08:41:39;;;;;;;27.60;18.42;;;;;;;;;;5099034;28;20020;-79
2021/05/13 08:44:09;;;;;;;27.90;19.30;;;;;;;;;;5098151;28;20357;-79
2021/05/13 08:46:38;;;;;;;6.55;5.00;;;;;;;;;;5099694;28;20315;-80
2021/05/13 08:49:05;;;;;;;30.95;13.00;;;;;;;;;;5098605;28;20055;-79
2021/05/13 08:51:32;;;;;;;16.13;10.77;;;;;;;;;;5099657;28;20052;-78
2021/05/13 08:53:59;;;;;;;21.05;13.30;;;;;;;;;;5099482;28;20028;-78
2021/05/13 08:56:28;;;;;;;20.67;12.10;;;;;;;;;;5098271;28;20070;-78
2021/05/13 08:58:58;;;;;;;20.15;12.70;;;;;;;;;;5099719;28;20028;-78
2021/05/13 09:01:24;;;;;;;16.67;8.98;;;;;;;;;;5099664;28;20036;-77
2021/05/13 09:03:51;;;;;;;9.63;6.07;;;;;;;;;;5099377;28;20035;-77
2021/05/13 09:06:22;;;;;;;13.05;8.55;;;;;;;;;;5099470;28;20044;-78
2021/05/13 09:08:48;;;;;;;11.93;8.00;;;;;;;;;;5099587;28;20028;-78
2021/05/13 09:11:17;;;;;;;15.07;9.57;;;;;;;;;;5099412;28;20416;-77
2021/05/13 09:13:48;;;;;;;9.88;6.22;;;;;;;;;;5099243;28;20024;-78
2021/05/13 09:16:26;;;;;;;10.98;5.53;;;;;;;;;;5098018;27;20051;-78
2021/05/13 09:18:53;;;;;;;6.03;3.97;;;;;;;;;;5099224;28;20048;-78
2021/05/13 09:21:19;;;;;;;9.52;5.78;;;;;;;;;;5099087;28;20020;-79
2021/05/13 09:23:45;;;;;;;8.77;4.13;;;;;;;;;;5098768;28;20051;-78
2021/05/13 09:26:16;;;;;;;8.10;5.50;;;;;;;;;;5099084;28;20047;-79
2021/05/13 09:28:42;;;;;;;14.57;7.53;;;;;;;;;;5097925;28;20299;-78
2021/05/13 09:31:08;;;;;;;7.80;4.93;;;;;;;;;;5097955;28;20036;-78
2021/05/13 09:33:38;;;;;;;8.40;5.00;;;;;;;;;;5098759;28;20024;-78
2021/05/13 09:36:18;;;;;;;7.75;3.50;;;;;;;;;;5097884;28;20114;-78
2021/05/13 09:38:44;;;;;;;5.60;2.47;;;;;;;;;;5097430;28;20027;-79
2021/05/13 09:41:10;;;;;;;3.63;2.00;;;;;;;;;;5098701;28;20095;-78
2021/05/13 09:43:38;;;;;;;7.50;3.03;;;;;;;;;;5098585;28;20024;-78
2021/05/13 09:46:05;;;;;;;6.03;2.88;;;;;;;;;;5096772;28;20036;-78
2021/05/13 09:48:40;;;;;;;7.18;2.72;;;;;;;;;;5098437;28;20044;-78
2021/05/13 09:51:15;;;;;;;3.55;2.30;;;;;;;;;;5098451;28;20028;-79
2021/05/13 09:53:41;;;;;;;5.35;3.30;;;;;;;;;;5098276;28;20024;-78
2021/05/13 09:56:27;;;;;;;5.20;2.53;;;;;;;;;;5098269;28;20024;-78
2021/05/13 09:58:53;;;;;;;4.25;1.83;;;;;;;;;;5098658;28;20073;-78
2021/05/13 10:01:19;;;;;;;8.10;2.60;;;;;;;;;;5097089;28;20061;-78
2021/05/13 10:03:46;;;;;;;3.33;1.85;;;;;;;;;;5098319;28;20042;-78
2021/05/13 10:06:13;;;;;;;6.57;2.97;;;;;;;;;;5099693;28;20031;-78
2021/05/13 10:08:40;;;;;;;9.07;2.40;;;;;;;;;;5108556;28;20129;-79
2021/05/13 10:11:09;;;;;;;4.50;2.10;;;;;;;;;;5117418;28;20027;-79
2021/05/13 10:13:35;;;;;;;5.40;2.55;;;;;;;;;;5118734;28;20027;-79
2021/05/13 10:16:02;;;;;;;6.50;2.60;;;;;;;;;;5118409;28;20031;-79
2021/05/13 10:18:40;;;;;;;6.00;2.22;;;;;;;;;;5117501;28;20114;-78
2021/05/13 10:21:13;;;;;;;3.83;2.22;;;;;;;;;;5118230;28;20452;-78
2021/05/13 10:23:41;;;;;;;6.45;2.70;;;;;;;;;;5118080;28;20024;-78
2021/05/13 10:26:07;;;;;;;6.63;2.28;;;;;;;;;;5118375;28;20023;-77
2021/05/13 10:28:34;;;;;;;5.57;2.30;;;;;;;;;;5117968;28;20031;-78
2021/05/13 10:31:02;;;;;;;6.75;2.50;;;;;;;;;;5118198;28;20069;-78
2021/05/13 10:33:43;;;;;;;5.75;2.30;;;;;;;;;;5118383;28;20027;-78
2021/05/13 10:36:09;;;;;;;4.20;1.73;;;;;;;;;;5117998;28;20106;-78
2021/05/13 10:38:38;;;;;;;4.03;1.80;;;;;;;;;;5116770;28;20351;-78
2021/05/13 10:41:24;;;;;;;4.97;2.10;;;;;;;;;;5118198;28;20035;-78
2021/05/13 10:43:50;;;;;;;7.80;2.55;;;;;;;;;;5117857;28;20416;-79
2021/05/13 10:46:28;;;;;;;4.18;1.70;;;;;;;;;;5117830;28;20024;-79
2021/05/13 10:49:19;;;;;;;6.30;2.00;;;;;;;;;;5117943;28;20043;-78
2021/05/13 10:51:45;;;;;;;6.35;2.47;;;;;;;;;;5035202;28;20041;-78
2021/05/13 10:54:31;;;;;;;8.25;3.03;;;;;;;;;;5018391;28;20037;-77
2021/05/13 10:57:13;;;;;;;13.75;3.88;;;;;;;;;;5035380;28;20330;-78
2021/05/13 10:59:39;;;;;;;;;;;;;;;;;;5035930;28;20025;-89
2021/05/13 11:02:25;;;;;;;31.80;22.45;;;;;;;;;;5035358;28;20318;-80
2021/05/13 11:04:51;;;;;;;42.58;27.95;;;;;;;;;;5035089;28;20060;-80
2021/05/13 11:07:28;;;;;;;69.65;45.20;;;;;;;;;;5035497;28;20045;-80
2021/05/13 11:09:54;;;;;;;14.82;9.85;;;;;;;;;;5035230;28;20034;-80
2021/05/13 11:12:40;;;;;;;11.00;5.13;;;;;;;;;;5034678;28;20498;-80
2021/05/13 11:15:21;;;;;;;45.38;31.63;;;;;;;;;;5035147;28;20041;-80
2021/05/13 11:18:01;;;;;;;16.23;10.80;;;;;;;;;;5035822;28;20029;-79
2021/05/13 11:20:29;;;;;;;17.67;10.13;;;;;;;;;;5035085;28;20112;-78
2021/05/13 11:22:58;;;;;;;18.70;11.25;;;;;;;;;;5035214;28;20041;-79
2021/05/13 11:25:24;;;;;;;34.10;21.25;;;;;;;;;;5034958;28;20033;-81
2021/05/13 11:27:50;;;;;;;70.05;43.80;;;;;;;;;;5030331;28;20069;-77
2021/05/13 11:30:17;;;;;;;38.13;27.48;;;;;;;;;;5117305;28;20341;-77
2021/05/13 11:32:43;;;;;;;8.30;4.93;;;;;;;;;;5117057;28;20027;-76
2021/05/13 11:35:09;;;;;;;6.15;4.38;;;;;;;;;;5117618;28;20026;-77
2021/05/13 11:37:39;;;;;;;6.57;4.03;;;;;;;;;;5117568;28;20026;-77
2021/05/13 11:40:23;;;;;;;7.30;3.03;;;;;;;;;;5117301;28;20027;-78
2021/05/13 11:42:49;;;;;;;7.40;3.25;;;;;;;;;;5117345;28;20020;-77
2021/05/13 11:45:23;;;;;;;10.52;5.13;;;;;;;;;;5117389;28;20027;-77
2021/05/13 11:47:49;;;;;;;7.90;4.13;;;;;;;;;;5117113;28;20043;-77
2021/05/13 11:50:28;;;;;;;17.02;9.55;;;;;;;;;;5116125;28;20077;-76
2021/05/13 11:53:07;;;;;;;14.25;7.45;;;;;;;;;;5117108;28;20423;-77
2021/05/13 11:55:33;;;;;;;12.75;7.60;;;;;;;;;;5117404;28;20023;-86
2021/05/13 11:57:59;;;;;;;13.32;8.35;;;;;;;;;;5117271;28;20398;-86
2021/05/13 12:00:26;;;;;;;14.85;9.25;;;;;;;;;;5117918;28;20020;-86
2021/05/13 12:03:07;;;;;;;6.38;4.97;;;;;;;;;;5118087;28;20380;-87
2021/05/13 12:05:44;;;;;;;7.95;5.30;;;;;;;;;;5117969;28;20123;-86
2021/05/13 12:08:28;;;;;;;9.18;6.45;;;;;;;;;;5116355;28;20050;-87
2021/05/13 12:10:55;;;;;;;3.88;2.20;;;;;;;;;;5117606;28;20020;-84
2021/05/13 12:13:26;;;;;;;9.65;2.03;;;;;;;;;;5116131;28;20108;-85
2021/05/13 12:16:02;;;;;;;4.80;2.10;;;;;;;;;;5116306;28;20036;-84
2021/05/13 12:18:29;;;;;;;7.90;4.65;;;;;;;;;;5117586;28;20024;-88
2021/05/13 12:20:55;;;;;;;6.18;3.38;;;;;;;;;;5117477;28;20046;-87
2021/05/13 12:23:21;;;;;;;7.82;2.70;;;;;;;;;;5117870;28;20073;-87
2021/05/13 12:25:48;;;;;;;5.13;1.70;;;;;;;;;;5121526;28;20049;-87
2021/05/13 12:28:16;;;;;;;6.28;1.55;;;;;;;;;;5121307;28;20049;-87
2021/05/13 12:30:50;;;;;;;27.60;6.40;;;;;;;;;;5121168;28;20035;-88
2021/05/13 12:33:25;;;;;;;18.02;4.00;;;;;;;;;;5120804;28;20024;-88
2021/05/13 12:35:52;;;;;;;57.33;10.77;;;;;;;;;;5120114;28;20377;-90
2021/05/13 12:38:20;;;;;;;19.60;4.22;;;;;;;;;;5119762;28;20119;-88
2021/05/13 12:40:46;;;;;;;11.48;4.85;;;;;;;;;;5120219;28;20020;-88
2021/05/13 12:43:13;;;;;;;7.50;3.70;;;;;;;;;;5119532;28;20035;-88
2021/05/13 12:45:44;;;;;;;11.73;2.33;;;;;;;;;;5119594;28;20035;-88
2021/05/13 12:48:11;;;;;;;9.07;2.70;;;;;;;;;;5119150;28;20082;-88
2021/05/13 12:50:37;;;;;;;16.40;11.30;;;;;;;;;;5120639;28;20347;-87
2021/05/13 12:53:15;;;;;;;18.48;9.48;;;;;;;;;;5120136;28;20055;-82
2021/05/13 12:55:42;;;;;;;7.53;4.65;;;;;;;;;;5120326;28;20024;-84
2021/05/13 12:58:13;;;;;;;5.80;2.38;;;;;;;;;;5119822;28;20118;-90
2021/05/13 13:00:39;;;;;;;6.03;2.60;;;;;;;;;;5120768;28;20027;-90
2021/05/13 13:03:14;;;;;;;5.13;1.90;;;;;;;;;;5120460;28;20027;-92
2021/05/13 13:05:41;;;;;;;4.55;1.90;;;;;;;;;;5119346;28;20047;-83
2021/05/13 13:08:08;;;;;;;4.03;2.05;;;;;;;;;;5118868;28;20341;-87
2021/05/13 13:10:36;;;;;;;5.20;2.13;;;;;;;;;;5119709;28;20030;-80
2021/05/13 13:13:30;;;;;;;5.93;2.33;;;;;;;;;;5119764;28;20024;-81
2021/05/13 13:18:26;;;;;;;2.83;2.45;;;;;;;;;;5119891;28;20027;-80
2021/05/13 13:20:52;;;;;;;4.90;3.40;;;;;;;;;;5119888;28;20329;-82
2021/05/13 13:23:23;;;;;;;5.90;3.00;;;;;;;;;;5119662;28;20410;-83
2021/05/13 13:25:49;;;;;;;8.90;3.83;;;;;;;;;;5118521;28;20447;-81
2021/05/13 13:28:16;;;;;;;3.92;2.78;;;;;;;;;;5117829;28;20039;-80
2021/05/13 13:30:43;;;;;;;3.80;2.40;;;;;;;;;;5119566;28;20406;-82
2021/05/13 13:33:16;;;;;;;4.93;2.78;;;;;;;;;;5119203;28;20028;-83
2021/05/13 13:35:43;;;;;;;5.28;2.80;;;;;;;;;;5119216;28;20359;-84
2021/05/13 13:38:11;;;;;;;5.35;2.58;;;;;;;;;;5119562;28;20109;-82
2021/05/13 13:40:40;;;;;;;4.03;2.70;;;;;;;;;;5119292;28;20028;-82
2021/05/13 13:43:07;;;;;;;6.47;3.45;;;;;;;;;;5117626;28;20367;-82
2021/05/13 13:45:33;;;;;;;21.65;7.72;;;;;;;;;;5117647;28;20027;-82
2021/05/13 13:48:07;;;;;;;5.20;3.10;;;;;;;;;;5118889;28;20051;-82
2021/05/13 13:50:33;;;;;;;7.20;3.63;;;;;;;;;;5118854;28;20037;-82
2021/05/13 13:53:00;;;;;;;5.75;3.05;;;;;;;;;;5119174;28;20607;-82
2021/05/13 13:55:26;;;;;;;6.68;4.05;;;;;;;;;;5119182;28;20051;-83
2021/05/13 13:57:52;;;;;;;6.63;3.80;;;;;;;;;;5117915;28;20026;-83
2021/05/13 14:00:18;;;;;;;4.80;2.85;;;;;;;;;;5119178;28;20032;-82
2021/05/13 14:02:46;;;;;;;6.63;3.50;;;;;;;;;;5118648;28;20081;-83
2021/05/13 14:05:12;;;;;;;6.70;3.38;;;;;;;;;;5118853;28;20027;-83
2021/05/13 14:07:38;;;;;;;21.17;11.68;;;;;;;;;;5118673;28;20019;-82
2021/05/13 14:10:04;;;;;;;8.82;5.85;;;;;;;;;;5118617;28;20115;-83
2021/05/13 14:12:30;;;;;;;7.38;3.70;;;;;;;;;;5118620;28;20030;-83
2021/05/13 14:14:56;;;;;;;18.63;7.82;;;;;;;;;;5118336;28;20020;-83
2021/05/13 14:17:24;;;;;;;9.27;4.97;;;;;;;;;;5118736;28;20024;-83
2021/05/13 14:19:50;;;;;;;12.25;6.68;;;;;;;;;;5118085;28;20418;-82
2021/05/13 14:22:17;;;;;;;12.20;4.78;;;;;;;;;;5117085;28;20330;-82
2021/05/13 14:24:43;;;;;;;6.38;3.83;;;;;;;;;;5118441;28;20096;-83
2021/05/13 14:27:09;;;;;;;6.30;3.75;;;;;;;;;;5117294;28;20469;-83
2021/05/13 14:29:35;;;;;;;6.50;3.25;;;;;;;;;;5118552;28;20065;-83
2021/05/13 14:32:01;;;;;;;9.48;4.43;;;;;;;;;;5117456;28;20030;-82
2021/05/13 14:34:27;;;;;;;7.38;5.25;;;;;;;;;;5118370;28;20023;-83
2021/05/13 14:36:53;;;;;;;6.32;3.08;;;;;;;;;;5118269;28;20355;-83
2021/05/13 14:39:19;;;;;;;4.82;2.10;;;;;;;;;;5118157;28;20020;-83
2021/05/13 14:41:46;;;;;;;9.25;1.80;;;;;;;;;;5118086;28;20016;-83
2021/05/13 14:44:12;;;;;;;4.50;1.90;;;;;;;;;;5118154;28;20024;-83
2021/05/13 14:46:38;;;;;;;4.38;2.28;;;;;;;;;;5117717;28;20054;-83
2021/05/13 14:49:20;;;;;;;6.75;3.25;;;;;;;;;;5117387;28;20027;-83
2021/05/13 14:51:46;;;;;;;6.80;2.17;;;;;;;;;;5118149;28;20065;-82
2021/05/13 14:54:12;;;;;;;4.03;2.13;;;;;;;;;;5117596;28;20107;-82
2021/05/13 14:56:38;;;;;;;3.08;1.38;;;;;;;;;;5116087;28;20024;-82
2021/05/13 14:59:10;;;;;;;2.95;1.50;;;;;;;;;;5116982;28;20065;-83
2021/05/13 15:01:36;;;;;;;7.07;3.00;;;;;;;;;;5116374;28;20032;-82
2021/05/13 15:04:02;;;;;;;5.40;2.45;;;;;;;;;;5118251;28;20023;-82
2021/05/13 15:06:29;;;;;;;4.55;2.05;;;;;;;;;;5117718;28;20424;-82
2021/05/13 15:08:55;;;;;;;2.85;1.38;;;;;;;;;;5117574;28;20028;-81
2021/05/13 15:11:21;;;;;;;2.08;0.80;;;;;;;;;;5118294;28;20398;-82
2021/05/13 15:13:47;;;;;;;2.75;1.33;;;;;;;;;;5107453;28;20056;-81
2021/05/13 15:16:13;;;;;;;6.07;1.90;;;;;;;;;;5103789;28;20088;-82
2021/05/13 15:18:39;;;;;;;2.78;1.52;;;;;;;;;;5097420;28;20022;-83
2021/05/13 15:21:05;;;;;;;4.65;3.30;;;;;;;;;;5097026;28;20024;-82
2021/05/13 15:23:32;;;;;;;7.20;3.22;;;;;;;;;;5115260;28;20310;-81
2021/05/13 15:25:58;;;;;;;12.77;5.72;;;;;;;;;;5116413;28;20027;-81
2021/05/13 15:28:24;;;;;;;9.27;4.68;;;;;;;;;;5117359;28;20394;-82
2021/05/13 15:30:50;;;;;;;9.88;5.43;;;;;;;;;;5117601;28;20035;-82
2021/05/13 15:33:17;;;;;;;8.30;4.65;;;;;;;;;;5117342;28;20030;-82